sensor_id;sensor_type;location;lat;lon;timestamp;P1;durP1;ratioP1;P2;durP2;ratioP2
73113;SDS011;61301;51.956;5.876;2023-06-22T00:02:00;1.33;;;1.10;;
73113;SDS011;61301;51.956;5.876;2023-06-22T00:04:26;1.15;;;0.88;;
73113;SDS011;61301;51.956;5.876;2023-06-22T00:06:52;2.25;;;0.90;;
73113;SDS011;61301;51.956;5.876;2023-06-22T00:09:18;1.30;;;1.08;;
73113;SDS011;61301;51.956;5.876;2023-06-22T00:11:45;2.05;;;1.17;;
73113;SDS011;61301;51.956;5.876;2023-06-22T00:14:11;2.33;;;1.50;;
73113;SDS011;61301;51.956;5.876;2023-06-22T00:16:37;2.85;;;1.55;;
73113;SDS011;61301;51.956;5.876;2023-06-22T00:19:03;2.03;;;1.10;;
73113;SDS011;61301;51.956;5.876;2023-06-22T00:21:29;1.60;;;0.80;;
73113;SDS011;61301;51.956;5.876;2023-06-22T00:23:56;1.40;;;1.20;;
73113;SDS011;61301;51.956;5.876;2023-06-22T00:26:22;2.03;;;1.38;;
73113;SDS011;61301;51.956;5.876;2023-06-22T00:28:49;0.90;;;0.80;;
73113;SDS011;61301;51.956;5.876;2023-06-22T00:31:15;0.80;;;0.80;;
73113;SDS011;61301;51.956;5.876;2023-06-22T00:33:40;1.42;;;0.85;;
73113;SDS011;61301;51.956;5.876;2023-06-22T00:36:07;1.25;;;0.82;;
73113;SDS011;61301;51.956;5.876;2023-06-22T00:38:38;0.88;;;0.70;;
73113;SDS011;61301;51.956;5.876;2023-06-22T00:41:08;1.73;;;1.50;;
73113;SDS011;61301;51.956;5.876;2023-06-22T00:43:35;2.10;;;1.52;;
73113;SDS011;61301;51.956;5.876;2023-06-22T00:46:02;1.63;;;1.20;;
73113;SDS011;61301;51.956;5.876;2023-06-22T00:48:28;2.05;;;1.05;;
73113;SDS011;61301;51.956;5.876;2023-06-22T00:50:54;1.35;;;1.17;;
73113;SDS011;61301;51.956;5.876;2023-06-22T00:53:22;1.80;;;1.42;;
73113;SDS011;61301;51.956;5.876;2023-06-22T00:55:49;1.33;;;1.08;;
73113;SDS011;61301;51.956;5.876;2023-06-22T00:58:18;2.22;;;1.35;;
73113;SDS011;61301;51.956;5.876;2023-06-22T01:00:48;1.20;;;1.00;;
73113;SDS011;61301;51.956;5.876;2023-06-22T01:03:14;2.65;;;1.55;;
73113;SDS011;61301;51.956;5.876;2023-06-22T01:05:42;2.63;;;1.55;;
73113;SDS011;61301;51.956;5.876;2023-06-22T01:08:15;1.52;;;1.38;;
73113;SDS011;61301;51.956;5.876;2023-06-22T01:11:01;1.52;;;1.35;;
73113;SDS011;61301;51.956;5.876;2023-06-22T01:13:37;1.85;;;1.60;;
73113;SDS011;61301;51.956;5.876;2023-06-22T01:16:30;0.90;;;0.80;;
73113;SDS011;61301;51.956;5.876;2023-06-22T01:18:57;2.35;;;1.20;;
73113;SDS011;61301;51.956;5.876;2023-06-22T01:21:30;1.45;;;1.13;;
73113;SDS011;61301;51.956;5.876;2023-06-22T01:24:11;1.83;;;1.45;;
73113;SDS011;61301;51.956;5.876;2023-06-22T01:29:29;2.30;;;1.55;;
73113;SDS011;61301;51.956;5.876;2023-06-22T01:31:58;1.33;;;1.17;;
73113;SDS011;61301;51.956;5.876;2023-06-22T01:34:28;1.05;;;0.90;;
73113;SDS011;61301;51.956;5.876;2023-06-22T01:36:56;0.98;;;0.80;;
73113;SDS011;61301;51.956;5.876;2023-06-22T01:39:22;2.00;;;1.20;;
73113;SDS011;61301;51.956;5.876;2023-06-22T01:41:52;2.65;;;1.40;;
73113;SDS011;61301;51.956;5.876;2023-06-22T01:44:19;1.38;;;1.25;;
73113;SDS011;61301;51.956;5.876;2023-06-22T01:46:47;1.33;;;0.80;;
73113;SDS011;61301;51.956;5.876;2023-06-22T01:49:14;1.67;;;0.85;;
73113;SDS011;61301;51.956;5.876;2023-06-22T01:51:41;2.80;;;0.88;;
73113;SDS011;61301;51.956;5.876;2023-06-22T01:54:07;0.57;;;0.57;;
73113;SDS011;61301;51.956;5.876;2023-06-22T01:56:38;0.90;;;0.80;;
73113;SDS011;61301;51.956;5.876;2023-06-22T02:01:54;1.65;;;0.82;;
73113;SDS011;61301;51.956;5.876;2023-06-22T02:04:27;0.98;;;0.60;;
73113;SDS011;61301;51.956;5.876;2023-06-22T02:07:00;0.55;;;0.40;;
73113;SDS011;61301;51.956;5.876;2023-06-22T02:09:31;0.93;;;0.77;;
73113;SDS011;61301;51.956;5.876;2023-06-22T02:11:59;1.15;;;0.70;;
73113;SDS011;61301;51.956;5.876;2023-06-22T02:14:27;1.08;;;0.93;;
73113;SDS011;61301;51.956;5.876;2023-06-22T02:16:54;2.08;;;1.50;;
73113;SDS011;61301;51.956;5.876;2023-06-22T02:19:23;1.40;;;1.00;;
73113;SDS011;61301;51.956;5.876;2023-06-22T02:21:52;1.35;;;0.75;;
73113;SDS011;61301;51.956;5.876;2023-06-22T02:24:20;0.70;;;0.70;;
73113;SDS011;61301;51.956;5.876;2023-06-22T02:26:49;1.50;;;0.63;;
73113;SDS011;61301;51.956;5.876;2023-06-22T02:29:15;0.52;;;0.52;;
73113;SDS011;61301;51.956;5.876;2023-06-22T02:31:42;1.50;;;1.05;;
73113;SDS011;61301;51.956;5.876;2023-06-22T02:34:08;0.93;;;0.90;;
73113;SDS011;61301;51.956;5.876;2023-06-22T02:36:34;0.90;;;0.90;;
73113;SDS011;61301;51.956;5.876;2023-06-22T02:39:00;0.65;;;0.65;;
73113;SDS011;61301;51.956;5.876;2023-06-22T02:41:27;2.10;;;0.75;;
73113;SDS011;61301;51.956;5.876;2023-06-22T02:43:55;0.70;;;0.70;;
73113;SDS011;61301;51.956;5.876;2023-06-22T02:46:21;1.02;;;0.57;;
73113;SDS011;61301;51.956;5.876;2023-06-22T02:48:48;1.08;;;0.95;;
73113;SDS011;61301;51.956;5.876;2023-06-22T02:51:14;1.60;;;1.27;;
73113;SDS011;61301;51.956;5.876;2023-06-22T02:53:41;0.95;;;0.77;;
73113;SDS011;61301;51.956;5.876;2023-06-22T02:56:11;0.50;;;0.50;;
73113;SDS011;61301;51.956;5.876;2023-06-22T02:58:38;0.52;;;0.52;;
73113;SDS011;61301;51.956;5.876;2023-06-22T03:01:08;0.85;;;0.52;;
73113;SDS011;61301;51.956;5.876;2023-06-22T03:03:36;1.60;;;1.10;;
73113;SDS011;61301;51.956;5.876;2023-06-22T03:06:03;1.75;;;1.33;;
73113;SDS011;61301;51.956;5.876;2023-06-22T03:08:29;0.88;;;0.77;;
73113;SDS011;61301;51.956;5.876;2023-06-22T03:10:56;1.10;;;0.95;;
73113;SDS011;61301;51.956;5.876;2023-06-22T03:13:22;0.85;;;0.73;;
73113;SDS011;61301;51.956;5.876;2023-06-22T03:15:49;1.48;;;1.10;;
73113;SDS011;61301;51.956;5.876;2023-06-22T03:18:15;0.98;;;0.70;;
73113;SDS011;61301;51.956;5.876;2023-06-22T03:20:41;1.83;;;1.30;;
73113;SDS011;61301;51.956;5.876;2023-06-22T03:23:08;1.20;;;1.10;;
73113;SDS011;61301;51.956;5.876;2023-06-22T03:25:34;1.13;;;0.80;;
73113;SDS011;61301;51.956;5.876;2023-06-22T03:28:01;1.13;;;0.70;;
73113;SDS011;61301;51.956;5.876;2023-06-22T03:30:27;0.65;;;0.65;;
73113;SDS011;61301;51.956;5.876;2023-06-22T03:32:53;0.52;;;0.50;;
73113;SDS011;61301;51.956;5.876;2023-06-22T03:35:19;0.50;;;0.50;;
73113;SDS011;61301;51.956;5.876;2023-06-22T03:37:48;0.85;;;0.73;;
73113;SDS011;61301;51.956;5.876;2023-06-22T03:40:14;0.50;;;0.40;;
73113;SDS011;61301;51.956;5.876;2023-06-22T03:42:40;1.95;;;1.20;;
73113;SDS011;61301;51.956;5.876;2023-06-22T03:45:08;0.70;;;0.60;;
73113;SDS011;61301;51.956;5.876;2023-06-22T03:47:35;0.55;;;0.55;;
73113;SDS011;61301;51.956;5.876;2023-06-22T03:50:01;1.85;;;0.90;;
73113;SDS011;61301;51.956;5.876;2023-06-22T03:52:29;1.33;;;1.23;;
73113;SDS011;61301;51.956;5.876;2023-06-22T03:54:55;1.77;;;1.42;;
73113;SDS011;61301;51.956;5.876;2023-06-22T03:57:21;0.73;;;0.70;;
73113;SDS011;61301;51.956;5.876;2023-06-22T03:59:47;0.52;;;0.50;;
73113;SDS011;61301;51.956;5.876;2023-06-22T04:02:13;1.70;;;1.40;;
73113;SDS011;61301;51.956;5.876;2023-06-22T04:04:40;1.50;;;1.40;;
73113;SDS011;61301;51.956;5.876;2023-06-22T04:07:06;1.20;;;0.95;;
73113;SDS011;61301;51.956;5.876;2023-06-22T04:09:32;0.95;;;0.93;;
73113;SDS011;61301;51.956;5.876;2023-06-22T04:11:58;2.83;;;2.42;;
73113;SDS011;61301;51.956;5.876;2023-06-22T04:14:24;4.70;;;3.60;;
73113;SDS011;61301;51.956;5.876;2023-06-22T04:16:49;3.92;;;3.28;;
73113;SDS011;61301;51.956;5.876;2023-06-22T04:19:15;4.68;;;3.30;;
73113;SDS011;61301;51.956;5.876;2023-06-22T04:21:43;4.85;;;4.30;;
73113;SDS011;61301;51.956;5.876;2023-06-22T04:24:10;5.85;;;4.07;;
73113;SDS011;61301;51.956;5.876;2023-06-22T04:26:37;6.30;;;4.88;;
73113;SDS011;61301;51.956;5.876;2023-06-22T04:29:03;5.60;;;4.50;;
73113;SDS011;61301;51.956;5.876;2023-06-22T04:31:31;5.65;;;5.05;;
73113;SDS011;61301;51.956;5.876;2023-06-22T04:34:05;6.43;;;4.60;;
73113;SDS011;61301;51.956;5.876;2023-06-22T04:36:39;3.78;;;3.20;;
73113;SDS011;61301;51.956;5.876;2023-06-22T04:39:07;7.75;;;6.95;;
73113;SDS011;61301;51.956;5.876;2023-06-22T04:41:35;7.00;;;5.88;;
73113;SDS011;61301;51.956;5.876;2023-06-22T04:44:09;9.60;;;7.50;;
73113;SDS011;61301;51.956;5.876;2023-06-22T04:46:51;10.13;;;8.10;;
73113;SDS011;61301;51.956;5.876;2023-06-22T04:49:34;7.65;;;6.85;;
73113;SDS011;61301;51.956;5.876;2023-06-22T04:52:03;7.45;;;6.03;;
73113;SDS011;61301;51.956;5.876;2023-06-22T04:54:31;7.65;;;6.90;;
73113;SDS011;61301;51.956;5.876;2023-06-22T04:57:01;11.23;;;9.18;;
73113;SDS011;61301;51.956;5.876;2023-06-22T04:59:28;8.73;;;7.82;;
73113;SDS011;61301;51.956;5.876;2023-06-22T05:01:56;8.30;;;7.15;;
73113;SDS011;61301;51.956;5.876;2023-06-22T05:04:23;10.27;;;8.55;;
73113;SDS011;61301;51.956;5.876;2023-06-22T05:06:53;7.10;;;6.10;;
73113;SDS011;61301;51.956;5.876;2023-06-22T05:09:20;11.90;;;8.02;;
73113;SDS011;61301;51.956;5.876;2023-06-22T05:11:46;7.68;;;5.70;;
73113;SDS011;61301;51.956;5.876;2023-06-22T05:14:13;7.82;;;7.03;;
73113;SDS011;61301;51.956;5.876;2023-06-22T05:16:41;7.80;;;7.00;;
73113;SDS011;61301;51.956;5.876;2023-06-22T05:19:08;8.73;;;7.03;;
73113;SDS011;61301;51.956;5.876;2023-06-22T05:21:34;8.95;;;7.65;;
73113;SDS011;61301;51.956;5.876;2023-06-22T05:24:00;11.05;;;9.00;;
73113;SDS011;61301;51.956;5.876;2023-06-22T05:26:28;11.43;;;9.75;;
73113;SDS011;61301;51.956;5.876;2023-06-22T05:28:56;7.47;;;6.15;;
73113;SDS011;61301;51.956;5.876;2023-06-22T05:31:22;7.55;;;6.78;;
73113;SDS011;61301;51.956;5.876;2023-06-22T05:33:48;10.18;;;7.38;;
73113;SDS011;61301;51.956;5.876;2023-06-22T05:36:16;8.43;;;7.53;;
73113;SDS011;61301;51.956;5.876;2023-06-22T05:38:45;8.65;;;7.75;;
73113;SDS011;61301;51.956;5.876;2023-06-22T05:41:11;6.95;;;6.20;;
73113;SDS011;61301;51.956;5.876;2023-06-22T05:43:37;6.22;;;5.63;;
73113;SDS011;61301;51.956;5.876;2023-06-22T05:46:03;11.50;;;8.90;;
73113;SDS011;61301;51.956;5.876;2023-06-22T05:48:30;6.68;;;5.97;;
73113;SDS011;61301;51.956;5.876;2023-06-22T05:50:56;10.93;;;9.77;;
73113;SDS011;61301;51.956;5.876;2023-06-22T05:53:22;10.88;;;9.70;;
73113;SDS011;61301;51.956;5.876;2023-06-22T05:55:48;12.55;;;10.27;;
73113;SDS011;61301;51.956;5.876;2023-06-22T05:58:14;8.57;;;7.20;;
73113;SDS011;61301;51.956;5.876;2023-06-22T06:00:41;9.00;;;8.10;;
73113;SDS011;61301;51.956;5.876;2023-06-22T06:03:08;6.65;;;5.90;;
73113;SDS011;61301;51.956;5.876;2023-06-22T06:05:35;10.35;;;8.95;;
73113;SDS011;61301;51.956;5.876;2023-06-22T06:08:02;6.47;;;5.68;;
73113;SDS011;61301;51.956;5.876;2023-06-22T06:10:33;11.88;;;9.48;;
73113;SDS011;61301;51.956;5.876;2023-06-22T06:13:00;10.63;;;9.52;;
73113;SDS011;61301;51.956;5.876;2023-06-22T06:15:30;10.23;;;9.23;;
73113;SDS011;61301;51.956;5.876;2023-06-22T06:17:57;8.43;;;6.20;;
73113;SDS011;61301;51.956;5.876;2023-06-22T06:20:24;15.48;;;9.73;;
73113;SDS011;61301;51.956;5.876;2023-06-22T06:22:51;10.25;;;8.93;;
73113;SDS011;61301;51.956;5.876;2023-06-22T06:25:17;9.35;;;8.40;;
73113;SDS011;61301;51.956;5.876;2023-06-22T06:27:46;9.23;;;7.85;;
73113;SDS011;61301;51.956;5.876;2023-06-22T06:30:12;7.75;;;6.20;;
73113;SDS011;61301;51.956;5.876;2023-06-22T06:32:40;10.50;;;8.95;;
73113;SDS011;61301;51.956;5.876;2023-06-22T06:35:07;8.60;;;7.75;;
73113;SDS011;61301;51.956;5.876;2023-06-22T06:37:38;6.32;;;5.22;;
73113;SDS011;61301;51.956;5.876;2023-06-22T06:40:09;9.63;;;7.13;;
73113;SDS011;61301;51.956;5.876;2023-06-22T06:42:37;8.93;;;8.00;;
73113;SDS011;61301;51.956;5.876;2023-06-22T06:45:06;10.07;;;8.32;;
73113;SDS011;61301;51.956;5.876;2023-06-22T06:47:33;7.70;;;6.90;;
73113;SDS011;61301;51.956;5.876;2023-06-22T06:49:59;7.03;;;6.13;;
73113;SDS011;61301;51.956;5.876;2023-06-22T06:52:25;9.52;;;7.13;;
73113;SDS011;61301;51.956;5.876;2023-06-22T06:54:52;7.13;;;6.43;;
73113;SDS011;61301;51.956;5.876;2023-06-22T06:57:18;11.15;;;9.73;;
73113;SDS011;61301;51.956;5.876;2023-06-22T06:59:45;9.15;;;8.18;;
73113;SDS011;61301;51.956;5.876;2023-06-22T07:02:11;7.45;;;6.22;;
73113;SDS011;61301;51.956;5.876;2023-06-22T07:04:38;10.32;;;7.63;;
73113;SDS011;61301;51.956;5.876;2023-06-22T07:07:04;9.40;;;7.68;;
73113;SDS011;61301;51.956;5.876;2023-06-22T07:09:30;7.13;;;6.32;;
73113;SDS011;61301;51.956;5.876;2023-06-22T07:11:56;9.55;;;7.78;;
73113;SDS011;61301;51.956;5.876;2023-06-22T07:14:22;10.45;;;8.50;;
73113;SDS011;61301;51.956;5.876;2023-06-22T07:16:48;8.05;;;7.15;;
73113;SDS011;61301;51.956;5.876;2023-06-22T07:19:14;6.80;;;5.95;;
73113;SDS011;61301;51.956;5.876;2023-06-22T07:21:40;5.72;;;5.22;;
73113;SDS011;61301;51.956;5.876;2023-06-22T07:24:06;5.72;;;5.13;;
73113;SDS011;61301;51.956;5.876;2023-06-22T07:26:33;5.18;;;4.60;;
73113;SDS011;61301;51.956;5.876;2023-06-22T07:28:59;6.15;;;5.55;;
73113;SDS011;61301;51.956;5.876;2023-06-22T07:31:26;5.90;;;5.30;;
73113;SDS011;61301;51.956;5.876;2023-06-22T07:33:52;6.03;;;4.95;;
73113;SDS011;61301;51.956;5.876;2023-06-22T07:36:18;5.55;;;4.97;;
73113;SDS011;61301;51.956;5.876;2023-06-22T07:38:44;6.35;;;5.20;;
73113;SDS011;61301;51.956;5.876;2023-06-22T07:41:10;5.72;;;4.90;;
73113;SDS011;61301;51.956;5.876;2023-06-22T07:43:39;6.78;;;6.07;;
73113;SDS011;61301;51.956;5.876;2023-06-22T07:46:05;7.78;;;6.32;;
73113;SDS011;61301;51.956;5.876;2023-06-22T07:48:31;5.03;;;4.53;;
73113;SDS011;61301;51.956;5.876;2023-06-22T07:50:57;8.00;;;7.20;;
73113;SDS011;61301;51.956;5.876;2023-06-22T07:53:23;4.30;;;3.85;;
73113;SDS011;61301;51.956;5.876;2023-06-22T07:55:50;7.40;;;5.90;;
73113;SDS011;61301;51.956;5.876;2023-06-22T07:58:16;8.00;;;6.68;;
73113;SDS011;61301;51.956;5.876;2023-06-22T08:00:44;6.75;;;5.82;;
73113;SDS011;61301;51.956;5.876;2023-06-22T08:03:10;8.05;;;6.20;;
73113;SDS011;61301;51.956;5.876;2023-06-22T08:05:36;6.30;;;5.22;;
73113;SDS011;61301;51.956;5.876;2023-06-22T08:08:02;6.80;;;5.22;;
73113;SDS011;61301;51.956;5.876;2023-06-22T08:10:28;6.05;;;5.10;;
73113;SDS011;61301;51.956;5.876;2023-06-22T08:12:54;5.22;;;4.72;;
73113;SDS011;61301;51.956;5.876;2023-06-22T08:15:20;8.98;;;4.78;;
73113;SDS011;61301;51.956;5.876;2023-06-22T08:17:47;5.82;;;5.22;;
73113;SDS011;61301;51.956;5.876;2023-06-22T08:20:13;6.72;;;4.57;;
73113;SDS011;61301;51.956;5.876;2023-06-22T08:22:40;5.22;;;4.20;;
73113;SDS011;61301;51.956;5.876;2023-06-22T08:25:07;5.40;;;4.90;;
73113;SDS011;61301;51.956;5.876;2023-06-22T08:27:34;6.88;;;5.78;;
73113;SDS011;61301;51.956;5.876;2023-06-22T08:30:01;4.85;;;4.18;;
73113;SDS011;61301;51.956;5.876;2023-06-22T08:32:27;6.75;;;3.88;;
73113;SDS011;61301;51.956;5.876;2023-06-22T08:34:54;6.72;;;3.70;;
73113;SDS011;61301;51.956;5.876;2023-06-22T08:37:20;4.22;;;3.80;;
73113;SDS011;61301;51.956;5.876;2023-06-22T08:39:56;6.72;;;4.28;;
73113;SDS011;61301;51.956;5.876;2023-06-22T08:42:27;6.10;;;3.78;;
73113;SDS011;61301;51.956;5.876;2023-06-22T08:44:53;5.55;;;4.00;;
73113;SDS011;61301;51.956;5.876;2023-06-22T08:47:19;6.53;;;3.67;;
73113;SDS011;61301;51.956;5.876;2023-06-22T08:49:45;3.90;;;3.50;;
73113;SDS011;61301;51.956;5.876;2023-06-22T08:52:12;5.63;;;3.03;;
73113;SDS011;61301;51.956;5.876;2023-06-22T08:54:38;6.32;;;4.35;;
73113;SDS011;61301;51.956;5.876;2023-06-22T08:57:05;4.05;;;3.17;;
73113;SDS011;61301;51.956;5.876;2023-06-22T08:59:31;4.70;;;4.20;;
73113;SDS011;61301;51.956;5.876;2023-06-22T09:01:57;5.05;;;3.42;;
73113;SDS011;61301;51.956;5.876;2023-06-22T09:04:23;4.80;;;3.33;;
73113;SDS011;61301;51.956;5.876;2023-06-22T09:06:49;5.32;;;3.70;;
73113;SDS011;61301;51.956;5.876;2023-06-22T09:09:17;3.28;;;2.88;;
73113;SDS011;61301;51.956;5.876;2023-06-22T09:11:44;4.05;;;3.60;;
73113;SDS011;61301;51.956;5.876;2023-06-22T09:14:10;4.22;;;3.05;;
73113;SDS011;61301;51.956;5.876;2023-06-22T09:16:42;3.42;;;2.95;;
73113;SDS011;61301;51.956;5.876;2023-06-22T09:19:09;4.80;;;3.95;;
73113;SDS011;61301;51.956;5.876;2023-06-22T09:21:34;3.78;;;3.13;;
73113;SDS011;61301;51.956;5.876;2023-06-22T09:24:02;6.05;;;3.58;;
73113;SDS011;61301;51.956;5.876;2023-06-22T09:26:28;4.10;;;3.70;;
73113;SDS011;61301;51.956;5.876;2023-06-22T09:28:54;2.80;;;2.38;;
73113;SDS011;61301;51.956;5.876;2023-06-22T09:31:20;3.13;;;2.60;;
73113;SDS011;61301;51.956;5.876;2023-06-22T09:33:52;2.80;;;2.50;;
73113;SDS011;61301;51.956;5.876;2023-06-22T09:36:23;8.60;;;4.47;;
73113;SDS011;61301;51.956;5.876;2023-06-22T09:38:49;4.07;;;3.25;;
73113;SDS011;61301;51.956;5.876;2023-06-22T09:41:24;3.97;;;2.70;;
73113;SDS011;61301;51.956;5.876;2023-06-22T09:43:50;4.47;;;3.10;;
73113;SDS011;61301;51.956;5.876;2023-06-22T09:46:16;4.07;;;3.55;;
73113;SDS011;61301;51.956;5.876;2023-06-22T09:48:42;3.90;;;2.88;;
73113;SDS011;61301;51.956;5.876;2023-06-22T09:51:08;7.72;;;4.25;;
73113;SDS011;61301;51.956;5.876;2023-06-22T09:53:34;4.05;;;3.10;;
73113;SDS011;61301;51.956;5.876;2023-06-22T09:56:01;3.90;;;2.83;;
73113;SDS011;61301;51.956;5.876;2023-06-22T09:58:27;2.95;;;2.50;;
73113;SDS011;61301;51.956;5.876;2023-06-22T10:00:54;2.53;;;2.20;;
73113;SDS011;61301;51.956;5.876;2023-06-22T10:03:20;3.95;;;2.63;;
73113;SDS011;61301;51.956;5.876;2023-06-22T10:05:46;3.42;;;2.60;;
73113;SDS011;61301;51.956;5.876;2023-06-22T10:08:12;2.42;;;2.20;;
73113;SDS011;61301;51.956;5.876;2023-06-22T10:10:38;3.22;;;2.92;;
73113;SDS011;61301;51.956;5.876;2023-06-22T10:13:11;3.90;;;3.10;;
73113;SDS011;61301;51.956;5.876;2023-06-22T10:15:37;4.17;;;2.53;;
73113;SDS011;61301;51.956;5.876;2023-06-22T10:18:03;3.20;;;2.88;;
73113;SDS011;61301;51.956;5.876;2023-06-22T10:20:30;3.45;;;2.65;;
73113;SDS011;61301;51.956;5.876;2023-06-22T10:22:56;2.53;;;2.00;;
73113;SDS011;61301;51.956;5.876;2023-06-22T10:25:22;2.55;;;1.98;;
73113;SDS011;61301;51.956;5.876;2023-06-22T10:27:48;2.92;;;2.25;;
73113;SDS011;61301;51.956;5.876;2023-06-22T10:30:14;4.47;;;3.20;;
73113;SDS011;61301;51.956;5.876;2023-06-22T10:32:40;4.65;;;3.15;;
73113;SDS011;61301;51.956;5.876;2023-06-22T10:35:08;5.32;;;3.38;;
73113;SDS011;61301;51.956;5.876;2023-06-22T10:37:36;6.25;;;3.45;;
73113;SDS011;61301;51.956;5.876;2023-06-22T10:40:02;3.70;;;3.30;;
73113;SDS011;61301;51.956;5.876;2023-06-22T10:42:29;3.95;;;2.85;;
73113;SDS011;61301;51.956;5.876;2023-06-22T10:44:55;3.20;;;2.83;;
73113;SDS011;61301;51.956;5.876;2023-06-22T10:47:21;4.07;;;2.05;;
73113;SDS011;61301;51.956;5.876;2023-06-22T10:49:47;3.38;;;3.08;;
73113;SDS011;61301;51.956;5.876;2023-06-22T10:52:13;3.17;;;2.58;;
73113;SDS011;61301;51.956;5.876;2023-06-22T10:54:40;4.00;;;3.08;;
73113;SDS011;61301;51.956;5.876;2023-06-22T10:57:06;5.88;;;2.67;;
73113;SDS011;61301;51.956;5.876;2023-06-22T10:59:32;3.53;;;2.67;;
73113;SDS011;61301;51.956;5.876;2023-06-22T11:01:58;2.85;;;2.05;;
73113;SDS011;61301;51.956;5.876;2023-06-22T11:04:24;3.78;;;3.13;;
73113;SDS011;61301;51.956;5.876;2023-06-22T11:06:51;3.72;;;2.97;;
73113;SDS011;61301;51.956;5.876;2023-06-22T11:09:17;2.75;;;2.45;;
73113;SDS011;61301;51.956;5.876;2023-06-22T11:11:47;2.67;;;2.28;;
73113;SDS011;61301;51.956;5.876;2023-06-22T11:14:13;2.40;;;2.03;;
73113;SDS011;61301;51.956;5.876;2023-06-22T11:16:39;2.85;;;2.00;;
73113;SDS011;61301;51.956;5.876;2023-06-22T11:19:05;3.25;;;2.30;;
73113;SDS011;61301;51.956;5.876;2023-06-22T11:21:31;5.00;;;3.65;;
73113;SDS011;61301;51.956;5.876;2023-06-22T11:23:58;4.32;;;2.78;;
73113;SDS011;61301;51.956;5.876;2023-06-22T11:26:25;3.10;;;2.80;;
73113;SDS011;61301;51.956;5.876;2023-06-22T11:28:54;3.58;;;3.28;;
73113;SDS011;61301;51.956;5.876;2023-06-22T11:31:20;4.05;;;2.40;;
73113;SDS011;61301;51.956;5.876;2023-06-22T11:33:46;3.15;;;2.28;;
73113;SDS011;61301;51.956;5.876;2023-06-22T11:36:13;2.60;;;1.92;;
73113;SDS011;61301;51.956;5.876;2023-06-22T11:38:40;2.67;;;2.20;;
73113;SDS011;61301;51.956;5.876;2023-06-22T11:41:06;2.55;;;2.10;;
73113;SDS011;61301;51.956;5.876;2023-06-22T11:43:33;3.50;;;3.20;;
73113;SDS011;61301;51.956;5.876;2023-06-22T11:45:59;4.68;;;3.35;;
73113;SDS011;61301;51.956;5.876;2023-06-22T11:48:26;3.92;;;2.75;;
73113;SDS011;61301;51.956;5.876;2023-06-22T11:50:52;3.33;;;3.03;;
73113;SDS011;61301;51.956;5.876;2023-06-22T11:53:20;2.55;;;2.35;;
73113;SDS011;61301;51.956;5.876;2023-06-22T11:55:47;3.75;;;2.97;;
73113;SDS011;61301;51.956;5.876;2023-06-22T11:58:13;2.85;;;2.65;;
73113;SDS011;61301;51.956;5.876;2023-06-22T12:00:39;3.08;;;2.47;;
73113;SDS011;61301;51.956;5.876;2023-06-22T12:03:05;2.58;;;2.38;;
73113;SDS011;61301;51.956;5.876;2023-06-22T12:05:31;2.50;;;2.30;;
73113;SDS011;61301;51.956;5.876;2023-06-22T12:07:57;3.45;;;2.80;;
73113;SDS011;61301;51.956;5.876;2023-06-22T12:10:24;4.03;;;3.63;;
73113;SDS011;61301;51.956;5.876;2023-06-22T12:12:51;3.92;;;3.08;;
73113;SDS011;61301;51.956;5.876;2023-06-22T12:15:17;3.42;;;3.13;;
73113;SDS011;61301;51.956;5.876;2023-06-22T12:17:43;4.18;;;2.85;;
73113;SDS011;61301;51.956;5.876;2023-06-22T12:20:09;4.68;;;2.58;;
73113;SDS011;61301;51.956;5.876;2023-06-22T12:22:35;3.10;;;2.58;;
73113;SDS011;61301;51.956;5.876;2023-06-22T12:25:03;3.20;;;2.78;;
73113;SDS011;61301;51.956;5.876;2023-06-22T12:27:29;4.22;;;3.10;;
73113;SDS011;61301;51.956;5.876;2023-06-22T12:29:56;3.08;;;2.38;;
73113;SDS011;61301;51.956;5.876;2023-06-22T12:32:22;4.03;;;3.38;;
73113;SDS011;61301;51.956;5.876;2023-06-22T12:34:48;3.03;;;2.42;;
73113;SDS011;61301;51.956;5.876;2023-06-22T12:37:14;3.13;;;2.83;;
73113;SDS011;61301;51.956;5.876;2023-06-22T12:39:40;3.58;;;2.78;;
73113;SDS011;61301;51.956;5.876;2023-06-22T12:42:06;6.00;;;3.95;;
73113;SDS011;61301;51.956;5.876;2023-06-22T12:44:34;4.40;;;3.80;;
73113;SDS011;61301;51.956;5.876;2023-06-22T12:47:01;4.50;;;4.10;;
73113;SDS011;61301;51.956;5.876;2023-06-22T12:49:29;3.78;;;3.40;;
73113;SDS011;61301;51.956;5.876;2023-06-22T12:51:55;4.88;;;3.92;;
73113;SDS011;61301;51.956;5.876;2023-06-22T12:54:21;4.05;;;3.40;;
73113;SDS011;61301;51.956;5.876;2023-06-22T12:56:47;5.65;;;4.57;;
73113;SDS011;61301;51.956;5.876;2023-06-22T12:59:15;3.88;;;3.58;;
73113;SDS011;61301;51.956;5.876;2023-06-22T13:01:43;5.10;;;4.22;;
73113;SDS011;61301;51.956;5.876;2023-06-22T13:04:14;5.63;;;4.47;;
73113;SDS011;61301;51.956;5.876;2023-06-22T13:06:44;5.97;;;5.38;;
73113;SDS011;61301;51.956;5.876;2023-06-22T13:09:13;6.15;;;5.55;;
73113;SDS011;61301;51.956;5.876;2023-06-22T13:11:40;7.82;;;6.22;;
73113;SDS011;61301;51.956;5.876;2023-06-22T13:14:07;4.65;;;4.25;;
73113;SDS011;61301;51.956;5.876;2023-06-22T13:16:33;6.10;;;5.03;;
73113;SDS011;61301;51.956;5.876;2023-06-22T13:18:59;4.78;;;4.28;;
73113;SDS011;61301;51.956;5.876;2023-06-22T13:21:25;7.03;;;6.30;;
73113;SDS011;61301;51.956;5.876;2023-06-22T13:23:51;5.78;;;4.93;;
73113;SDS011;61301;51.956;5.876;2023-06-22T13:26:17;5.00;;;4.47;;
73113;SDS011;61301;51.956;5.876;2023-06-22T13:28:43;7.43;;;4.93;;
73113;SDS011;61301;51.956;5.876;2023-06-22T13:31:11;4.45;;;3.95;;
73113;SDS011;61301;51.956;5.876;2023-06-22T13:33:38;4.78;;;4.00;;
73113;SDS011;61301;51.956;5.876;2023-06-22T13:36:06;4.45;;;4.05;;
73113;SDS011;61301;51.956;5.876;2023-06-22T13:38:34;5.00;;;4.22;;
73113;SDS011;61301;51.956;5.876;2023-06-22T13:41:04;2.92;;;2.63;;
73113;SDS011;61301;51.956;5.876;2023-06-22T13:43:30;4.70;;;4.20;;
73113;SDS011;61301;51.956;5.876;2023-06-22T13:45:57;6.53;;;4.72;;
73113;SDS011;61301;51.956;5.876;2023-06-22T13:48:23;5.70;;;5.15;;
73113;SDS011;61301;51.956;5.876;2023-06-22T13:50:51;3.97;;;3.67;;
73113;SDS011;61301;51.956;5.876;2023-06-22T13:53:18;5.57;;;4.65;;
73113;SDS011;61301;51.956;5.876;2023-06-22T13:55:44;4.60;;;4.20;;
73113;SDS011;61301;51.956;5.876;2023-06-22T13:58:10;4.70;;;4.20;;
73113;SDS011;61301;51.956;5.876;2023-06-22T14:00:36;4.35;;;3.95;;
73113;SDS011;61301;51.956;5.876;2023-06-22T14:03:02;3.70;;;3.40;;
73113;SDS011;61301;51.956;5.876;2023-06-22T14:05:28;5.07;;;3.17;;
73113;SDS011;61301;51.956;5.876;2023-06-22T14:07:54;4.57;;;4.07;;
73113;SDS011;61301;51.956;5.876;2023-06-22T14:10:20;3.25;;;2.90;;
73113;SDS011;61301;51.956;5.876;2023-06-22T14:12:46;5.43;;;4.85;;
73113;SDS011;61301;51.956;5.876;2023-06-22T14:15:12;4.82;;;3.60;;
73113;SDS011;61301;51.956;5.876;2023-06-22T14:17:38;6.05;;;4.85;;
73113;SDS011;61301;51.956;5.876;2023-06-22T14:20:04;5.30;;;4.55;;
73113;SDS011;61301;51.956;5.876;2023-06-22T14:22:33;4.45;;;3.88;;
73113;SDS011;61301;51.956;5.876;2023-06-22T14:25:00;5.25;;;4.50;;
73113;SDS011;61301;51.956;5.876;2023-06-22T14:27:27;4.00;;;3.42;;
73113;SDS011;61301;51.956;5.876;2023-06-22T14:29:53;3.78;;;3.30;;
73113;SDS011;61301;51.956;5.876;2023-06-22T14:32:19;3.55;;;3.25;;
73113;SDS011;61301;51.956;5.876;2023-06-22T14:34:45;6.22;;;5.63;;
73113;SDS011;61301;51.956;5.876;2023-06-22T14:37:11;3.92;;;3.30;;
73113;SDS011;61301;51.956;5.876;2023-06-22T14:39:38;2.47;;;2.28;;
73113;SDS011;61301;51.956;5.876;2023-06-22T14:42:05;4.43;;;3.97;;
73113;SDS011;61301;51.956;5.876;2023-06-22T14:44:31;4.82;;;3.88;;
73113;SDS011;61301;51.956;5.876;2023-06-22T14:46:57;4.43;;;3.60;;
73113;SDS011;61301;51.956;5.876;2023-06-22T14:49:23;5.55;;;5.00;;
73113;SDS011;61301;51.956;5.876;2023-06-22T14:51:49;5.70;;;5.10;;
73113;SDS011;61301;51.956;5.876;2023-06-22T14:54:15;5.20;;;4.70;;